Time;durP1;ratioP1;P1;durP2;ratioP2;P2;SDS_P1;SDS_P2;PMS_P1;PMS_P2;Temp;Humidity;BMP_temperature;BMP_pressure;BME280_temperature;BME280_humidity;BME280_pressure;Samples;Min_cycle;Max_cycle;Signal;HPM_P1;HPM_P2
2021/05/04 00:00:22;;;;;;;12.78;6.60;;;;;;;8.11;71.34;100147.02;1641651;85;20249;-86
2021/05/04 00:02:48;;;;;;;14.25;6.80;;;;;;;7.92;71.73;100146.52;1660472;84;21207;-86
2021/05/04 00:05:14;;;;;;;14.20;6.80;;;;;;;8.00;71.65;100146.67;1660823;84;28981;-85
2021/05/04 00:07:39;;;;;;;13.65;6.72;;;;;;;7.97;71.58;100143.47;1651138;85;21207;-84
2021/05/04 00:10:10;;;;;;;14.47;6.90;;;;;;;7.63;72.66;100141.25;1654522;85;21978;-85
2021/05/04 00:12:38;;;;;;;10.88;6.37;;;;;;;7.95;71.68;100137.53;1654323;85;21207;-85
2021/05/04 00:15:09;;;;;;;12.18;6.80;;;;;;;7.97;71.38;100132.95;1653923;85;21239;-85
2021/05/04 00:17:37;;;;;;;13.10;6.95;;;;;;;7.89;71.66;100137.13;1681747;84;21211;-86
2021/05/04 00:20:03;;;;;;;;;;;;;;;8.01;71.32;100129.09;1684924;84;21215;-84
2021/05/04 00:22:31;;;;;;;13.00;6.80;;;;;;;8.07;71.00;100128.53;1643780;86;22954;-84
2021/05/04 00:24:57;;;;;;;;;;;;;;;8.20;70.49;100120.33;1680383;82;21224;-85
2021/05/04 00:27:23;;;;;;;12.47;6.47;;;;;;;8.14;70.48;100124.38;1681339;84;20213;-88
2021/05/04 00:29:49;;;;;;;15.83;6.97;;;;;;;8.16;70.65;100126.38;1646315;85;21211;-84
2021/05/04 00:32:15;;;;;;;15.68;7.12;;;;;;;8.15;70.49;100124.70;1618511;85;27150;-85
2021/05/04 00:34:45;;;;;;;16.07;6.90;;;;;;;8.06;70.78;100124.23;1668677;84;22165;-86
2021/05/04 00:37:11;;;;;;;13.80;6.58;;;;;;;8.25;70.23;100116.31;1670099;84;21245;-85
2021/05/04 00:39:38;;;;;;;14.70;6.90;;;;;;;8.38;69.83;100116.50;1669068;84;24206;-87
2021/05/04 00:42:05;;;;;;;12.63;7.05;;;;;;;8.50;69.60;100107.95;1646787;85;21165;-82
2021/05/04 00:44:34;;;;;;;13.68;7.05;;;;;;;8.53;69.24;100110.30;1675114;84;21213;-82
2021/05/04 00:47:02;;;;;;;10.60;6.60;;;;;;;8.56;68.98;100104.28;1673915;84;21245;-86
2021/05/04 00:49:27;;;;;;;14.43;7.58;;;;;;;8.60;68.93;100105.63;1641089;85;21233;-83
2021/05/04 00:51:55;;;;;;;12.60;6.97;;;;;;;8.61;68.82;100106.48;1666185;85;25719;-83
2021/05/04 00:54:21;;;;;;;12.03;6.58;;;;;;;8.74;68.47;100103.02;1647828;85;21231;-84
2021/05/04 00:56:47;;;;;;;14.95;7.20;;;;;;;8.49;68.83;100099.23;1672981;85;26805;-82
2021/05/04 00:59:15;;;;;;;15.45;7.40;;;;;;;8.41;69.02;100097.80;1646959;85;21362;-85
2021/05/04 01:01:40;;;;;;;;;;;;;;;8.38;69.27;100095.45;1641404;85;22305;-83
2021/05/04 01:04:07;;;;;;;12.35;7.53;;;;;;;8.48;68.91;100095.44;1668742;85;20231;-84
2021/05/04 01:06:35;;;;;;;10.58;6.85;;;;;;;8.57;68.58;100094.08;1667307;85;21651;-83
2021/05/04 01:09:00;;;;;;;;;;;;;;;8.67;68.26;100093.20;1674222;84;21205;-84
2021/05/04 01:11:31;;;;;;;12.90;7.30;;;;;;;8.72;68.12;100090.49;1671828;84;21274;-85
2021/05/04 01:13:57;;;;;;;11.68;6.75;;;;;;;8.68;68.12;100092.25;1639298;85;21785;-83
2021/05/04 01:16:25;;;;;;;14.13;7.37;;;;;;;8.67;67.99;100096.69;1664298;84;21244;-86
2021/05/04 01:18:52;;;;;;;;;;;;;;;8.70;67.97;100095.55;1663308;84;21197;-83
2021/05/04 01:21:18;;;;;;;;;;;;;;;8.46;68.56;100092.95;1655418;85;21217;-84
2021/05/04 01:23:46;;;;;;;12.33;7.25;;;;;;;8.43;68.75;100093.20;1657675;85;21194;-83
2021/05/04 01:26:14;;;;;;;15.15;7.65;;;;;;;8.56;68.42;100091.59;1638008;85;21231;-84
2021/05/04 01:28:39;;;;;;;;;;;;;;;8.55;68.45;100093.41;1643968;85;21249;-83
2021/05/04 01:31:05;;;;;;;13.20;7.03;;;;;;;8.63;68.11;100090.87;1644122;84;20721;-83
2021/05/04 01:33:31;;;;;;;16.65;8.60;;;;;;;8.50;68.39;100100.91;1655804;84;26780;-85
2021/05/04 01:36:00;;;;;;;14.13;7.63;;;;;;;8.63;68.07;100103.20;1662479;85;22917;-84
2021/05/04 01:38:28;;;;;;;14.20;7.60;;;;;;;8.57;68.20;100095.39;1654916;85;21543;-83
2021/05/04 01:40:54;;;;;;;15.28;8.28;;;;;;;8.55;68.20;100096.03;1660719;85;21146;-85
2021/05/04 01:43:20;;;;;;;17.87;8.15;;;;;;;8.47;68.40;100093.30;1661424;85;28908;-88
2021/05/04 01:45:46;;;;;;;14.70;7.95;;;;;;;8.45;68.41;100088.65;1661390;84;27344;-82
2021/05/04 01:48:12;;;;;;;16.50;8.05;;;;;;;8.51;68.10;100091.20;1658739;85;21202;-83
2021/05/04 01:50:42;;;;;;;13.90;7.87;;;;;;;8.45;68.15;100089.97;1659992;85;27112;-83
2021/05/04 01:53:09;;;;;;;15.80;7.92;;;;;;;8.51;68.05;100091.20;1663524;85;21249;-83
2021/05/04 01:55:37;;;;;;;13.83;7.92;;;;;;;8.55;67.85;100089.95;1639104;85;21711;-82
2021/05/04 01:58:03;;;;;;;;;;;;;;;8.33;68.28;100080.55;1663000;85;21199;-82
2021/05/04 02:00:28;;;;;;;14.80;7.85;;;;;;;8.19;68.82;100085.31;1662460;84;21275;-83
2021/05/04 02:02:57;;;;;;;13.60;7.67;;;;;;;8.32;68.40;100073.66;1654208;84;27044;-84
2021/05/04 02:05:24;;;;;;;15.50;7.70;;;;;;;8.23;68.47;100069.61;1661862;84;21699;-84
2021/05/04 02:07:50;;;;;;;18.42;8.08;;;;;;;8.29;68.27;100066.05;1664378;85;21126;-82
2021/05/04 02:10:15;;;;;;;14.98;7.60;;;;;;;8.24;68.32;100064.66;1660441;85;27296;-83
2021/05/04 02:12:43;;;;;;;16.10;7.58;;;;;;;8.32;68.00;100063.95;1650382;84;21605;-82
2021/05/04 02:15:09;;;;;;;;;;;;;;;8.36;67.93;100066.64;1661849;85;21226;-84
2021/05/04 02:17:35;;;;;;;13.32;7.53;;;;;;;8.31;68.02;100064.09;1661228;85;20310;-83
2021/05/04 02:20:01;;;;;;;16.42;8.03;;;;;;;8.39;67.87;100058.47;1641952;85;28850;-86
2021/05/04 02:22:28;;;;;;;14.45;7.83;;;;;;;8.39;67.78;100052.35;1660812;85;21773;-86
2021/05/04 02:24:55;;;;;;;13.78;7.75;;;;;;;8.44;67.65;100056.75;1617529;85;21244;-87
2021/05/04 02:27:20;;;;;;;14.33;7.03;;;;;;;8.50;67.57;100050.91;1660082;85;21531;-83
2021/05/04 02:29:46;;;;;;;15.27;8.17;;;;;;;8.24;67.43;100052.83;1659089;85;24716;-84
2021/05/04 02:32:13;;;;;;;16.50;8.30;;;;;;;8.27;67.68;100056.98;1656593;84;28429;-85
2021/05/04 02:34:39;;;;;;;12.18;7.33;;;;;;;8.30;67.49;100055.38;1659780;84;21225;-83
2021/05/04 02:37:05;;;;;;;15.08;8.20;;;;;;;8.18;67.61;100057.34;1668046;85;21202;-86
2021/05/04 02:39:31;;;;;;;13.63;7.67;;;;;;;8.29;67.40;100052.89;1653057;84;25930;-84
2021/05/04 02:41:57;;;;;;;17.40;8.00;;;;;;;8.27;67.09;100045.96;1664878;85;23914;-82
2021/05/04 02:44:23;;;;;;;15.65;7.87;;;;;;;8.25;67.09;100044.47;1657553;84;21221;-81
2021/05/04 02:46:48;;;;;;;15.38;7.60;;;;;;;8.16;67.15;100047.45;1667124;84;27441;-87
2021/05/04 02:49:14;;;;;;;14.63;7.80;;;;;;;8.08;67.39;100047.36;1660419;84;21244;-83
2021/05/04 02:51:44;;;;;;;13.25;7.65;;;;;;;8.15;67.19;100053.69;1660024;85;27534;-82
2021/05/04 02:54:11;;;;;;;17.20;8.23;;;;;;;8.06;67.39;100050.59;1660187;85;22190;-84
2021/05/04 02:56:41;;;;;;;16.32;7.90;;;;;;;7.98;67.60;100045.22;1663365;84;26852;-82
2021/05/04 02:59:10;;;;;;;13.15;7.60;;;;;;;7.71;68.02;100049.42;1657291;85;21656;-84
2021/05/04 03:01:37;;;;;;;14.15;7.83;;;;;;;8.02;67.48;100046.61;1660389;85;21224;-82
2021/05/04 03:04:03;;;;;;;14.40;7.75;;;;;;;8.00;67.47;100048.53;1663518;85;21213;-83
2021/05/04 03:06:29;;;;;;;17.65;7.87;;;;;;;7.88;67.63;100046.06;1655803;85;21671;-84
2021/05/04 03:08:58;;;;;;;12.28;7.25;;;;;;;7.73;67.76;100044.84;1657137;85;28960;-87
2021/05/04 03:11:25;;;;;;;13.35;7.58;;;;;;;7.71;68.02;100037.59;1659551;85;21671;-84
2021/05/04 03:13:50;;;;;;;14.80;8.03;;;;;;;7.55;68.37;100040.30;1663546;85;21321;-83
2021/05/04 03:16:17;;;;;;;14.50;7.80;;;;;;;7.57;68.48;100041.95;1657482;84;25466;-83
2021/05/04 03:18:45;;;;;;;15.72;8.18;;;;;;;7.74;68.20;100038.62;1667599;84;21198;-82
2021/05/04 03:21:12;;;;;;;;;;;;;;;7.82;67.73;100041.38;1666985;85;21195;-82
2021/05/04 03:23:37;;;;;;;15.58;7.65;;;;;;;7.92;67.52;100036.09;1664067;85;20303;-83
2021/05/04 03:26:06;;;;;;;13.70;7.35;;;;;;;7.97;67.33;100043.55;1663396;84;21462;-86
2021/05/04 03:28:32;;;;;;;15.55;7.90;;;;;;;7.88;67.40;100032.92;1662856;84;21230;-83
2021/05/04 03:30:58;;;;;;;14.70;8.07;;;;;;;7.73;67.59;100036.96;1668655;85;21105;-83
2021/05/04 03:33:24;;;;;;;12.15;7.58;;;;;;;7.76;67.68;100041.94;1663862;84;21194;-83
2021/05/04 03:35:50;;;;;;;12.33;7.37;;;;;;;7.80;67.54;100040.70;1652832;84;26760;-84
2021/05/04 03:38:18;;;;;;;13.05;7.65;;;;;;;7.86;67.25;100045.39;1672526;85;22227;-82
2021/05/04 03:40:44;;;;;;;12.88;7.50;;;;;;;7.83;67.53;100051.39;1665848;85;21241;-86
2021/05/04 03:43:11;;;;;;;13.63;7.70;;;;;;;7.91;67.25;100053.67;1673500;84;25747;-84
2021/05/04 03:45:37;;;;;;;15.15;8.20;;;;;;;7.86;67.29;100053.28;1666380;84;21213;-82
2021/05/04 03:48:06;;;;;;;15.75;8.45;;;;;;;7.64;67.75;100049.13;1664648;84;26790;-82
2021/05/04 03:50:32;;;;;;;14.90;7.58;;;;;;;7.68;67.74;100052.33;1666570;85;21391;-83
2021/05/04 03:53:00;;;;;;;14.80;7.75;;;;;;;7.76;67.62;100052.45;1668632;84;21787;-83
2021/05/04 03:55:27;;;;;;;15.50;8.43;;;;;;;7.82;67.60;100055.83;1675212;84;21183;-83
2021/05/04 03:57:53;;;;;;;;;;;;;;;7.89;67.38;100056.94;1647852;85;21201;-83
2021/05/04 04:00:21;;;;;;;13.62;8.25;;;;;;;7.78;67.43;100053.13;1662535;84;20230;-85
2021/05/04 04:02:51;;;;;;;14.55;8.35;;;;;;;7.96;67.15;100053.75;1647549;85;21247;-86
2021/05/04 04:05:19;;;;;;;14.50;8.25;;;;;;;8.11;66.82;100050.16;1661914;85;21205;-85
2021/05/04 04:07:47;;;;;;;15.70;8.30;;;;;;;8.20;66.38;100051.94;1647873;85;21189;-83
2021/05/04 04:10:12;;;;;;;;;;;;;;;8.26;66.27;100044.33;1670458;84;21758;-83
2021/05/04 04:12:40;;;;;;;14.18;8.18;;;;;;;8.30;66.08;100043.54;1669724;84;20163;-83
2021/05/04 04:15:08;;;;;;;14.98;8.70;;;;;;;8.41;65.71;100040.72;1664114;85;21257;-83
2021/05/04 04:17:36;;;;;;;15.65;9.10;;;;;;;8.36;65.68;100042.11;1662569;85;21169;-85
2021/05/04 04:20:03;;;;;;;;;;;;;;;8.51;65.62;100036.75;1659535;84;21806;-86
2021/05/04 04:22:29;;;;;;;15.72;8.40;;;;;;;8.66;65.34;100036.30;1655187;85;20310;-84
2021/05/04 04:24:55;;;;;;;18.48;8.88;;;;;;;8.78;64.69;100032.48;1638428;84;26868;-83
2021/05/04 04:27:22;;;;;;;18.30;9.58;;;;;;;8.80;64.45;100037.11;1653536;85;21883;-85
2021/05/04 04:29:48;;;;;;;16.45;8.93;;;;;;;8.84;64.25;100031.89;1654791;85;21266;-88
2021/05/04 04:32:14;;;;;;;16.85;9.13;;;;;;;8.92;64.03;100031.97;1656062;85;21674;-86
2021/05/04 04:34:40;;;;;;;17.65;9.03;;;;;;;8.85;64.16;100031.40;1665279;85;28435;-86
2021/05/04 04:37:07;;;;;;;20.43;9.55;;;;;;;9.10;63.94;100020.63;1641640;85;27446;-85
2021/05/04 04:39:33;;;;;;;;;;;;;;;9.14;63.49;100023.30;1657684;84;21380;-86
2021/05/04 04:41:59;;;;;;;17.65;9.05;;;;;;;9.20;63.33;100031.92;1660837;85;20330;-87
2021/05/04 04:44:25;;;;;;;20.32;8.95;;;;;;;9.29;63.20;100022.27;1655914;84;25368;-85
2021/05/04 04:46:52;;;;;;;17.27;9.20;;;;;;;9.13;63.04;100021.64;1644064;85;28397;-84
2021/05/04 04:49:20;;;;;;;16.82;8.65;;;;;;;9.27;63.10;100026.38;1639384;85;21225;-85
2021/05/04 04:51:47;;;;;;;17.77;8.78;;;;;;;9.43;62.76;100022.23;1662715;84;21778;-85
2021/05/04 04:54:13;;;;;;;15.30;7.83;;;;;;;9.38;62.60;100017.91;1665677;84;21196;-87
2021/05/04 04:56:39;;;;;;;16.23;8.10;;;;;;;9.23;62.51;100025.51;1661795;85;25317;-83
2021/05/04 04:59:05;;;;;;;15.40;7.53;;;;;;;9.28;62.16;100018.82;1659973;85;21188;-86
2021/05/04 05:01:31;;;;;;;17.45;8.73;;;;;;;9.30;62.19;100021.30;1663308;85;22365;-90
2021/05/04 05:04:01;;;;;;;15.70;7.58;;;;;;;9.41;62.42;100014.97;1660948;85;21236;-84
2021/05/04 05:06:27;;;;;;;15.60;7.60;;;;;;;9.42;61.72;100017.96;1663295;85;21643;-85
2021/05/04 05:08:55;;;;;;;13.28;7.58;;;;;;;9.40;61.91;100018.58;1661145;85;25900;-86
2021/05/04 05:11:21;;;;;;;15.80;7.70;;;;;;;9.61;61.93;100007.72;1660029;85;21717;-86
2021/05/04 05:13:52;;;;;;;16.25;7.67;;;;;;;9.70;61.65;100016.03;1665303;84;26767;-84
2021/05/04 05:16:19;;;;;;;12.98;7.55;;;;;;;9.62;61.44;100021.25;1630988;84;21216;-84
2021/05/04 05:18:45;;;;;;;12.78;7.70;;;;;;;9.95;60.95;100015.70;1667670;84;21221;-87
2021/05/04 05:21:14;;;;;;;13.48;7.58;;;;;;;9.79;61.22;100016.42;1669518;84;25425;-86
2021/05/04 05:23:43;;;;;;;12.35;6.97;;;;;;;10.09;60.52;100016.12;1667751;84;21229;-85
2021/05/04 05:26:09;;;;;;;13.15;7.15;;;;;;;10.23;60.10;100019.48;1646594;85;21580;-87
2021/05/04 05:28:37;;;;;;;14.55;7.50;;;;;;;10.43;59.87;100019.30;1669946;84;22791;-86
2021/05/04 05:31:02;;;;;;;15.45;7.37;;;;;;;10.41;60.21;100019.45;1672427;84;22423;-85
2021/05/04 05:33:28;;;;;;;12.20;7.40;;;;;;;10.04;60.30;100020.04;1669078;84;25894;-85
2021/05/04 05:35:55;;;;;;;18.37;8.08;;;;;;;10.24;59.93;100015.88;1673278;84;28460;-82
2021/05/04 05:38:23;;;;;;;12.05;6.60;;;;;;;10.33;59.83;100012.80;1676296;84;21174;-89
2021/05/04 05:40:49;;;;;;;12.13;6.90;;;;;;;10.59;59.48;100014.06;1670629;83;22447;-87
2021/05/04 05:43:14;;;;;;;10.58;6.35;;;;;;;10.72;59.31;100006.52;1670087;84;27615;-86
2021/05/04 05:45:40;;;;;;;13.10;6.37;;;;;;;10.91;59.23;100004.59;1641195;85;25785;-86
2021/05/04 05:48:09;;;;;;;13.62;6.37;;;;;;;10.87;58.42;100012.50;1669005;84;28877;-86
2021/05/04 05:50:34;;;;;;;10.65;6.05;;;;;;;11.04;58.32;100006.25;1637599;85;21245;-86
2021/05/04 05:53:02;;;;;;;11.90;6.15;;;;;;;10.92;58.20;100002.27;1641493;85;22602;-85
2021/05/04 05:55:30;;;;;;;;;;;;;;;11.11;57.64;100000.66;1673080;84;21181;-87
2021/05/04 05:57:55;;;;;;;15.53;6.80;;;;;;;11.04;57.22;100000.96;1671708;84;20609;-84
2021/05/04 06:00:23;;;;;;;13.08;6.67;;;;;;;10.86;57.10;99992.34;1671114;84;28850;-83
2021/05/04 06:02:50;;;;;;;12.00;6.08;;;;;;;11.21;56.90;99986.45;1645003;85;21502;-85
2021/05/04 06:05:16;;;;;;;11.53;6.37;;;;;;;11.38;56.71;99984.14;1671522;84;21264;-85
2021/05/04 06:07:42;;;;;;;10.32;5.80;;;;;;;11.32;55.53;99984.80;1665751;84;27075;-86
2021/05/04 06:10:08;;;;;;;9.68;5.30;;;;;;;11.53;55.62;99980.83;1668696;85;25371;-84
2021/05/04 06:12:34;;;;;;;11.08;5.67;;;;;;;11.70;55.12;99984.28;1664426;85;21217;-85
2021/05/04 06:15:00;;;;;;;11.45;5.37;;;;;;;11.72;54.90;99987.09;1670307;84;21028;-85
2021/05/04 06:17:26;;;;;;;12.58;5.60;;;;;;;11.83;54.77;99978.80;1669452;84;21354;-85
2021/05/04 06:19:52;;;;;;;11.40;6.15;;;;;;;11.61;53.98;99984.30;1666672;85;27109;-86
2021/05/04 06:22:18;;;;;;;11.33;5.50;;;;;;;11.76;54.11;99983.13;1663823;84;25408;-88
2021/05/04 06:24:44;;;;;;;14.58;5.87;;;;;;;11.90;53.81;99978.13;1660536;84;21182;-88
2021/05/04 06:27:09;;;;;;;9.50;5.22;;;;;;;11.88;53.09;99968.22;1656184;85;21061;-81
2021/05/04 06:29:35;;;;;;;11.68;6.03;;;;;;;12.03;53.15;99974.50;1664765;85;21283;-83
2021/05/04 06:32:10;;;;;;;9.80;5.42;;;;;;;11.77;53.36;99965.43;1661724;85;21205;-86
2021/05/04 06:34:32;;;;;;;12.45;5.62;;;;;;;12.01;52.69;99972.53;1657857;85;21213;-87
2021/05/04 06:36:57;;;;;;;11.10;5.83;;;;;;;11.96;52.57;99960.28;1666243;85;20955;-82
2021/05/04 06:39:23;;;;;;;8.00;4.83;;;;;;;12.10;52.11;99958.75;1668769;84;21066;-79
2021/05/04 06:41:49;;;;;;;9.50;4.90;;;;;;;12.39;51.70;99948.88;1661213;85;21461;-82
2021/05/04 06:44:15;;;;;;;11.93;5.45;;;;;;;12.20;50.46;99949.61;1667799;85;27598;-80
2021/05/04 06:46:41;;;;;;;13.13;5.35;;;;;;;12.45;51.03;99945.53;1663415;85;21623;-83
2021/05/04 06:49:07;;;;;;;11.22;5.60;;;;;;;11.98;50.77;99942.44;1665248;85;21635;-85
2021/05/04 06:51:32;;;;;;;11.08;5.12;;;;;;;11.87;51.19;99939.63;1667013;85;21753;-90
2021/05/04 06:53:58;;;;;;;9.43;5.10;;;;;;;12.26;50.33;99927.41;1669994;84;21660;-85
2021/05/04 06:56:26;;;;;;;9.60;5.20;;;;;;;12.19;50.29;99921.48;1667789;84;27636;-83
2021/05/04 06:58:52;;;;;;;9.75;4.70;;;;;;;12.59;49.61;99923.29;1673320;84;21207;-82
2021/05/04 07:01:19;;;;;;;11.50;4.78;;;;;;;12.84;49.73;99920.79;1670447;85;21027;-83
2021/05/04 07:03:44;;;;;;;8.70;4.65;;;;;;;12.72;49.07;99918.22;1663002;85;21640;-82
2021/05/04 07:06:10;;;;;;;12.73;5.03;;;;;;;12.77;49.13;99910.59;1664260;85;22190;-81
2021/05/04 07:08:36;;;;;;;9.08;4.62;;;;;;;12.97;48.29;99915.40;1667363;85;20983;-83
2021/05/04 07:11:02;;;;;;;8.43;4.50;;;;;;;12.92;48.22;99910.12;1658552;84;25492;-81
2021/05/04 07:13:27;;;;;;;11.65;4.37;;;;;;;13.04;47.76;99901.77;1666865;85;20916;-83
2021/05/04 07:15:55;;;;;;;8.93;4.45;;;;;;;13.10;47.45;99907.68;1669539;84;21066;-81
2021/05/04 07:18:23;;;;;;;;;;;;;;;12.92;47.15;99903.49;1664615;85;21459;-80
2021/05/04 07:20:50;;;;;;;7.62;4.12;;;;;;;13.15;46.82;99899.20;1668188;84;20286;-88
2021/05/04 07:23:15;;;;;;;8.58;4.40;;;;;;;13.11;46.75;99902.20;1670847;84;21214;-82
2021/05/04 07:25:41;;;;;;;7.78;4.40;;;;;;;13.15;46.50;99896.03;1669811;84;20967;-85
2021/05/04 07:28:07;;;;;;;9.43;4.28;;;;;;;13.12;46.23;99897.72;1671537;84;20963;-81
2021/05/04 07:30:34;;;;;;;8.23;4.05;;;;;;;13.62;46.29;99892.79;1670016;84;22285;-86
2021/05/04 07:33:00;;;;;;;8.30;4.28;;;;;;;13.85;45.34;99883.92;1671663;84;21213;-84
2021/05/04 07:35:26;;;;;;;8.28;4.30;;;;;;;13.77;45.04;99887.50;1670486;85;21071;-86
2021/05/04 07:37:52;;;;;;;10.20;3.98;;;;;;;13.76;45.52;99885.84;1669302;84;21197;-81
2021/05/04 07:40:18;;;;;;;7.50;4.05;;;;;;;14.02;45.52;99885.88;1670669;84;21726;-81
2021/05/04 07:42:44;;;;;;;7.28;3.60;;;;;;;13.83;44.50;99877.47;1672058;84;22054;-79
2021/05/04 07:45:10;;;;;;;8.25;4.12;;;;;;;14.23;44.83;99873.98;1673434;84;21098;-83
2021/05/04 07:47:36;;;;;;;7.00;3.90;;;;;;;14.13;43.55;99872.12;1668803;84;21213;-82
2021/05/04 07:50:04;;;;;;;10.08;4.10;;;;;;;14.21;43.21;99870.67;1669167;84;20991;-83
2021/05/04 07:52:29;;;;;;;6.75;3.87;;;;;;;14.04;43.23;99874.56;1642641;85;21811;-81
2021/05/04 07:54:55;;;;;;;9.95;4.10;;;;;;;14.24;43.39;99866.83;1672300;84;22035;-81
2021/05/04 07:57:21;;;;;;;8.18;3.80;;;;;;;14.28;42.46;99860.95;1670143;84;21662;-79
2021/05/04 07:59:47;;;;;;;8.95;4.03;;;;;;;14.45;42.42;99859.38;1669454;84;20936;-77
2021/05/04 08:02:13;;;;;;;6.83;3.62;;;;;;;14.16;42.12;99850.50;1671073;84;21202;-78
2021/05/04 08:04:39;;;;;;;6.05;3.40;;;;;;;14.32;41.71;99850.25;1670685;85;20984;-77
2021/05/04 08:07:07;;;;;;;7.35;3.98;;;;;;;14.18;41.30;99844.00;1672011;85;21284;-78
2021/05/04 08:09:32;;;;;;;;;;;;;;;14.47;41.79;99832.13;1674874;85;21209;-76
2021/05/04 08:11:57;;;;;;;5.78;3.60;;;;;;;14.58;41.42;99826.82;1668557;84;20187;-79
2021/05/04 08:14:26;;;;;;;7.75;3.72;;;;;;;14.72;40.60;99828.09;1672330;84;21019;-80
2021/05/04 08:16:53;;;;;;;6.62;3.60;;;;;;;14.56;40.20;99821.70;1668149;84;21624;-77
2021/05/04 08:19:19;;;;;;;6.50;3.17;;;;;;;14.61;39.80;99821.97;1664334;84;21391;-82
2021/05/04 08:21:45;;;;;;;8.00;3.47;;;;;;;14.51;39.90;99822.75;1660274;85;21141;-80
2021/05/04 08:24:12;;;;;;;6.62;3.50;;;;;;;14.35;38.70;99824.64;1664622;85;21177;-86
2021/05/04 08:26:39;;;;;;;5.40;3.23;;;;;;;14.63;38.51;99817.80;1667602;84;21189;-85
2021/05/04 08:29:05;;;;;;;5.12;2.95;;;;;;;14.74;38.43;99813.80;1666095;84;21298;-84
2021/05/04 08:31:32;;;;;;;4.60;2.83;;;;;;;15.03;39.12;99810.95;1668405;84;21315;-82
2021/05/04 08:33:58;;;;;;;6.70;3.17;;;;;;;15.25;39.00;99807.72;1664898;84;21253;-84
2021/05/04 08:36:24;;;;;;;6.17;3.12;;;;;;;15.08;38.06;99808.53;1667333;84;21230;-89
2021/05/04 08:38:49;;;;;;;6.42;3.20;;;;;;;15.16;37.81;99802.23;1675205;84;21059;-85
2021/05/04 08:41:16;;;;;;;6.85;3.12;;;;;;;14.86;37.43;99804.29;1666611;84;21007;-85
2021/05/04 08:43:46;;;;;;;5.17;2.92;;;;;;;14.86;38.14;99794.98;1665052;84;21229;-82
2021/05/04 08:46:13;;;;;;;5.67;3.40;;;;;;;15.30;37.76;99792.50;1649629;85;39064;-82
2021/05/04 08:48:42;;;;;;;7.17;3.58;;;;;;;15.11;36.82;99798.54;1668931;84;21239;-84
2021/05/04 08:51:07;;;;;;;5.53;2.90;;;;;;;15.21;36.81;99788.36;1668162;84;21214;-82
2021/05/04 08:53:32;;;;;;;5.25;3.12;;;;;;;15.63;36.59;99785.22;1663212;84;21627;-81
2021/05/04 08:56:02;;;;;;;6.90;3.25;;;;;;;15.33;35.66;99782.80;1675179;84;21049;-80
2021/05/04 08:58:29;;;;;;;7.15;3.40;;;;;;;15.36;35.03;99786.92;1665839;84;21237;-82
2021/05/04 09:00:56;;;;;;;7.22;3.00;;;;;;;15.40;35.19;99778.34;1668233;84;21188;-82
2021/05/04 09:03:34;;;;;;;7.83;3.02;;;;;;;15.23;34.89;99776.52;1672502;84;21230;-83
2021/05/04 09:17:33;;;;;;;5.83;3.20;;;;;;;15.56;34.69;99735.13;1662512;85;21202;-84
2021/05/04 09:19:38;;;;;;;;;;;;;;;15.62;34.23;99744.45;1663450;85;21182;-83
2021/05/04 09:22:00;;;;;;;4.97;2.80;;;;;;;15.60;34.71;99747.02;1668915;84;20323;-82
2021/05/04 09:24:41;;;;;;;6.20;2.92;;;;;;;15.39;34.46;99740.77;1666359;84;21764;-83
2021/05/04 09:27:17;;;;;;;4.80;2.85;;;;;;;15.38;34.25;99728.52;1665646;84;21230;-84
2021/05/04 09:29:47;;;;;;;5.72;3.00;;;;;;;15.63;33.49;99717.34;1673002;85;21233;-83
2021/05/04 09:32:25;;;;;;;3.75;2.25;;;;;;;15.97;34.93;99726.25;1666441;84;21197;-82
2021/05/04 09:35:00;;;;;;;4.97;2.72;;;;;;;16.14;34.50;99704.89;1666360;84;21294;-83
2021/05/04 09:37:40;;;;;;;6.28;2.90;;;;;;;16.18;34.49;99713.28;1669510;85;21668;-82
2021/05/04 09:40:24;;;;;;;4.97;2.80;;;;;;;16.33;34.30;99705.10;1668165;84;21640;-83
2021/05/04 09:43:17;;;;;;;5.20;2.90;;;;;;;16.25;33.06;99706.61;1669752;84;21303;-81
2021/05/04 09:45:55;;;;;;;5.72;2.85;;;;;;;16.44;33.20;99694.34;1671645;84;21755;-85
2021/05/04 09:48:31;;;;;;;6.05;2.70;;;;;;;16.29;33.58;99701.20;1675506;84;21428;-82
2021/05/04 09:51:05;;;;;;;4.00;2.72;;;;;;;16.27;32.23;99697.92;1667165;84;21655;-82
2021/05/04 09:53:48;;;;;;;6.37;2.90;;;;;;;16.45;32.66;99690.14;1670294;84;21189;-82
2021/05/04 09:56:16;;;;;;;6.67;2.72;;;;;;;16.35;31.95;99689.72;1636230;85;21176;-82
2021/05/04 09:58:46;;;;;;;6.00;2.27;;;;;;;16.44;31.58;99679.16;1644997;85;21219;-83
2021/05/04 10:01:18;;;;;;;3.77;2.45;;;;;;;16.75;31.52;99684.84;1672201;84;21228;-83
2021/05/04 10:03:48;;;;;;;3.75;2.10;;;;;;;16.44;31.08;99668.50;1672594;84;21229;-81
2021/05/04 10:06:16;;;;;;;4.10;2.08;;;;;;;16.58;30.77;99666.64;1670231;84;21161;-82
2021/05/04 10:08:43;;;;;;;4.65;2.30;;;;;;;17.08;31.20;99656.80;1672109;84;21201;-84
2021/05/04 10:11:14;;;;;;;4.05;2.27;;;;;;;17.19;31.34;99649.98;1671287;84;21194;-82
2021/05/04 10:13:41;;;;;;;4.12;2.40;;;;;;;16.96;30.38;99644.62;1671625;84;21342;-83
2021/05/04 10:16:09;;;;;;;7.30;2.80;;;;;;;17.14;30.67;99651.95;1669431;84;21107;-79
2021/05/04 10:18:35;;;;;;;4.58;2.45;;;;;;;16.66;30.49;99660.27;1668762;84;21221;-79
2021/05/04 10:21:04;;;;;;;5.35;2.33;;;;;;;16.85;29.72;99642.58;1670074;84;21002;-83
2021/05/04 10:23:31;;;;;;;4.00;2.40;;;;;;;17.14;30.44;99623.94;1667092;84;21236;-85
2021/05/04 10:26:03;;;;;;;5.75;3.10;;;;;;;17.11;30.20;99639.03;1672973;84;21231;-83
2021/05/04 10:28:35;;;;;;;5.60;2.72;;;;;;;16.90;30.06;99628.64;1671094;85;21261;-83
2021/05/04 10:31:04;;;;;;;4.42;2.45;;;;;;;17.10;30.46;99626.72;1675789;84;21239;-80
2021/05/04 10:33:32;;;;;;;5.15;2.40;;;;;;;17.15;30.32;99620.74;1675759;83;21611;-82
2021/05/04 10:35:58;;;;;;;3.85;2.50;;;;;;;17.42;30.98;99608.09;1665910;85;21210;-84
2021/05/04 10:38:24;;;;;;;5.47;2.75;;;;;;;17.28;30.25;99606.02;1673739;84;21290;-82
2021/05/04 10:41:05;;;;;;;6.35;2.72;;;;;;;17.23;30.33;99609.84;1670853;84;20987;-79
2021/05/04 10:43:33;;;;;;;4.15;2.33;;;;;;;16.70;31.23;99606.81;1671247;84;21217;-79
2021/05/04 10:45:59;;;;;;;3.92;2.35;;;;;;;17.10;31.28;99593.89;1668551;84;21655;-83
2021/05/04 10:48:48;;;;;;;4.47;2.20;;;;;;;17.06;31.69;99596.17;1674794;84;20939;-83
2021/05/04 10:51:17;;;;;;;4.85;2.30;;;;;;;17.41;31.23;99590.43;1674426;84;21234;-85
2021/05/04 10:54:01;;;;;;;3.72;2.37;;;;;;;17.47;31.15;99593.58;1669141;85;21616;-83
2021/05/04 10:56:58;;;;;;;5.60;2.47;;;;;;;17.43;30.78;99591.02;1671656;85;21252;-82
2021/05/04 10:59:30;;;;;;;3.92;2.30;;;;;;;17.47;31.47;99589.57;1669164;84;22252;-83
2021/05/04 11:02:19;;;;;;;5.80;2.62;;;;;;;17.66;31.77;99577.64;1665999;85;21727;-85
2021/05/04 11:04:53;;;;;;;4.87;2.45;;;;;;;17.58;31.40;99567.52;1673441;84;21930;-87
2021/05/04 11:07:51;;;;;;;7.72;2.70;;;;;;;17.26;31.43;99565.89;1670725;84;21134;-83
2021/05/04 11:10:17;;;;;;;5.97;2.67;;;;;;;17.31;31.73;99572.72;1667985;85;21190;-82
2021/05/04 11:12:43;;;;;;;5.22;2.87;;;;;;;17.16;32.01;99559.16;1672769;84;20974;-83
2021/05/04 11:15:22;;;;;;;4.78;2.50;;;;;;;17.16;31.97;99545.02;1671657;84;20957;-83
2021/05/04 11:17:48;;;;;;;4.28;2.27;;;;;;;17.09;31.61;99538.89;1671925;85;21458;-83
2021/05/04 11:20:37;;;;;;;4.97;2.58;;;;;;;17.15;31.83;99537.53;1672602;84;20994;-85
2021/05/04 11:23:06;;;;;;;4.37;2.65;;;;;;;17.25;32.27;99540.25;1667678;85;21680;-81
2021/05/04 11:25:41;;;;;;;4.70;2.40;;;;;;;17.53;32.24;99532.65;1670625;84;21197;-84
2021/05/04 11:28:07;;;;;;;3.75;2.42;;;;;;;17.44;31.59;99520.60;1636468;87;21671;-85
2021/05/04 11:30:43;;;;;;;7.08;2.42;;;;;;;17.32;31.59;99526.33;1667521;85;22204;-87
2021/05/04 11:33:30;;;;;;;4.70;2.30;;;;;;;17.60;32.63;99516.57;1666060;85;21184;-88
2021/05/04 11:35:56;;;;;;;;;;;;;;;17.72;32.96;99519.36;1667409;84;21205;-87
2021/05/04 11:38:25;;;;;;;6.47;2.00;;;;;;;17.84;32.04;99512.80;1665142;85;20556;-88
2021/05/04 11:40:51;;;;;;;5.92;2.50;;;;;;;18.09;32.86;99492.74;1667661;84;21165;-85
2021/05/04 11:43:23;;;;;;;4.55;2.30;;;;;;;18.14;32.22;99491.55;1665096;84;22094;-86
2021/05/04 11:45:47;;;;;;;3.87;2.30;;;;;;;18.28;32.63;99489.02;1665534;84;21221;-88
2021/05/04 11:48:12;;;;;;;4.33;2.30;;;;;;;18.17;31.92;99485.77;1667223;84;21230;-90